createdAt,value
2019-04-14T00:00:55.405Z,11.00
2019-04-14T00:01:54.988Z,10.30
2019-04-14T00:02:55.472Z,10.70
2019-04-14T00:03:54.979Z,11.50
2019-04-14T00:04:55.131Z,10.70
2019-04-14T00:05:56.029Z,11.10
2019-04-14T00:06:55.029Z,10.40
2019-04-14T00:07:56.001Z,10.80
2019-04-14T00:08:55.020Z,11.00
2019-04-14T00:09:56.267Z,10.60
2019-04-14T00:10:55.113Z,10.80
2019-04-14T00:11:55.019Z,11.20
2019-04-14T00:12:55.642Z,11.10
2019-04-14T00:13:54.993Z,12.10
2019-04-14T00:14:55.448Z,11.20
2019-04-14T00:15:55.080Z,10.70
2019-04-14T00:16:55.379Z,11.70
2019-04-14T00:17:55.032Z,10.70
2019-04-14T00:18:55.544Z,11.20
2019-04-14T00:19:55.037Z,10.50
2019-04-14T00:20:55.530Z,11.10
2019-04-14T00:21:55.053Z,11.20
2019-04-14T00:22:55.512Z,11.30
2019-04-14T00:23:55.083Z,11.10
2019-04-14T00:24:55.347Z,10.80
2019-04-14T00:25:55.031Z,11.60
2019-04-14T00:26:55.248Z,11.20
2019-04-14T00:27:55.051Z,11.30
2019-04-14T00:28:55.612Z,11.30
2019-04-14T00:29:55.100Z,11.60
2019-04-14T00:30:55.570Z,11.30
2019-04-14T00:31:55.473Z,12.10
2019-04-14T00:32:55.326Z,11.30
2019-04-14T00:33:56.292Z,11.80
2019-04-14T00:34:55.097Z,11.10
2019-04-14T00:35:55.942Z,12.20
2019-04-14T00:36:55.118Z,11.00
2019-04-14T00:37:55.819Z,11.10
2019-04-14T00:38:56.141Z,11.90
2019-04-14T00:39:55.488Z,11.20
2019-04-14T00:40:56.108Z,11.60
2019-04-14T00:41:58.644Z,12.40
2019-04-14T00:42:55.939Z,11.50
2019-04-14T00:43:55.106Z,11.50
2019-04-14T00:44:55.928Z,11.50
2019-04-14T00:45:59.049Z,11.70
2019-04-14T00:46:56.043Z,11.30
2019-04-14T00:48:02.558Z,11.60
2019-04-14T00:48:56.014Z,12.70
2019-04-14T00:49:55.267Z,11.60
2019-04-14T00:50:55.989Z,11.00
2019-04-14T00:51:55.167Z,11.50
2019-04-14T00:52:55.163Z,11.90
2019-04-14T00:54:02.764Z,11.20
2019-04-14T00:54:55.142Z,11.70
2019-04-14T00:55:55.367Z,11.60
2019-04-14T00:56:56.229Z,11.60
2019-04-14T00:57:55.275Z,12.50
2019-04-14T00:58:56.112Z,11.40
2019-04-14T00:59:55.284Z,11.70
2019-04-14T01:00:55.818Z,12.00
2019-04-14T01:01:55.208Z,11.70
2019-04-14T01:02:55.758Z,12.10
2019-04-14T01:03:55.173Z,11.90
2019-04-14T01:04:55.520Z,11.50
2019-04-14T01:05:55.188Z,12.30
2019-04-14T01:06:55.481Z,11.50
2019-04-14T01:07:56.524Z,11.80
2019-04-14T01:08:55.421Z,11.80
2019-04-14T01:09:55.409Z,12.80
2019-04-14T01:10:56.126Z,12.40
2019-04-14T01:11:55.319Z,11.70
2019-04-14T01:12:56.007Z,12.10
2019-04-14T01:13:55.212Z,12.90
2019-04-14T01:14:55.997Z,12.10
2019-04-14T01:16:03.800Z,12.60
2019-04-14T01:16:55.866Z,11.90
2019-04-14T01:17:55.230Z,12.00
2019-04-14T01:18:55.843Z,12.20
2019-04-14T01:19:55.231Z,12.40
2019-04-14T01:20:55.695Z,11.90
2019-04-14T01:21:55.236Z,12.20
2019-04-14T01:22:55.322Z,12.60
2019-04-14T01:23:55.257Z,12.70
2019-04-14T01:24:55.367Z,12.20
2019-04-14T01:25:56.313Z,13.30
2019-04-14T01:26:55.252Z,13.00
2019-04-14T01:27:55.957Z,13.20
2019-04-14T01:28:55.328Z,13.90
2019-04-14T01:29:55.923Z,11.70
2019-04-14T01:30:56.508Z,13.30
2019-04-14T01:31:55.774Z,13.90
2019-04-14T01:32:56.432Z,13.00
2019-04-14T01:33:55.527Z,13.20
2019-04-14T01:34:56.699Z,13.00
2019-04-14T01:35:55.342Z,13.40
2019-04-14T01:36:56.134Z,13.60
2019-04-14T01:37:55.297Z,13.10
2019-04-14T01:38:55.742Z,12.90
2019-04-14T01:39:55.303Z,12.50
2019-04-14T01:40:55.374Z,13.10
2019-04-14T01:41:56.386Z,13.80
2019-04-14T01:42:55.292Z,13.40
2019-04-14T01:43:56.046Z,13.50
2019-04-14T01:44:55.301Z,13.10
2019-04-14T01:46:05.169Z,13.30
2019-04-14T01:46:56.498Z,13.60
2019-04-14T01:47:55.336Z,13.10
2019-04-14T01:48:56.346Z,13.50
2019-04-14T01:49:55.326Z,13.10
2019-04-14T01:50:56.190Z,13.30
2019-04-14T01:51:55.360Z,13.30
2019-04-14T01:52:55.346Z,13.80
2019-04-14T01:53:55.350Z,12.90
2019-04-14T01:54:56.082Z,13.40
2019-04-14T01:55:55.342Z,13.20
2019-04-14T01:56:55.911Z,13.10
2019-04-14T01:57:55.337Z,13.10
2019-04-14T01:58:55.721Z,13.40
2019-04-14T01:59:55.375Z,12.70
2019-04-14T02:00:55.463Z,14.00
2019-04-14T02:01:56.215Z,13.30
2019-04-14T02:02:55.410Z,13.50
2019-04-14T02:03:56.306Z,13.90
2019-04-14T02:04:55.441Z,14.00
2019-04-14T02:05:56.112Z,13.10
2019-04-14T02:06:55.386Z,13.70
2019-04-14T02:07:55.870Z,13.20
2019-04-14T02:08:56.733Z,14.00
2019-04-14T02:09:55.441Z,13.60
2019-04-14T02:10:56.470Z,13.40
2019-04-14T02:11:55.424Z,13.90
2019-04-14T02:12:56.366Z,13.50
2019-04-14T02:13:55.411Z,13.10
2019-04-14T02:14:56.262Z,13.40
2019-04-14T02:15:55.406Z,13.70
2019-04-14T02:16:59.082Z,13.70
2019-04-14T02:17:56.603Z,13.90
2019-04-14T02:18:56.848Z,13.40
2019-04-14T02:19:56.674Z,13.10
2019-04-14T02:20:55.744Z,13.50
2019-04-14T02:21:56.367Z,13.20
2019-04-14T02:22:55.448Z,14.20
2019-04-14T02:23:56.140Z,13.50
2019-04-14T02:24:55.442Z,14.00
2019-04-14T02:25:55.754Z,13.60
2019-04-14T02:26:55.432Z,13.50
2019-04-14T02:27:55.853Z,13.70
2019-04-14T02:28:55.438Z,14.30
2019-04-14T02:29:55.931Z,13.60
2019-04-14T02:31:03.395Z,12.50
2019-04-14T02:32:25.162Z,13.10
2019-04-14T02:33:26.092Z,12.90
2019-04-14T02:34:28.418Z,13.30
2019-04-14T02:35:28.372Z,13.10
2019-04-14T02:37:31.898Z,12.40
2019-04-14T02:39:33.828Z,13.70
2019-04-14T02:40:34.861Z,12.80
2019-04-14T02:41:27.007Z,13.20
2019-04-14T02:43:30.111Z,12.80
2019-04-14T02:44:23.729Z,12.30
2019-04-14T02:45:32.249Z,12.40
2019-04-14T02:46:21.917Z,13.20
2019-04-14T02:47:48.944Z,12.90
2019-04-14T02:49:18.691Z,12.90
2019-04-14T02:50:17.828Z,12.80
2019-04-14T02:51:28.791Z,13.30
2019-04-14T02:52:20.251Z,12.80
2019-04-14T02:54:22.850Z,13.40
2019-04-14T02:55:15.218Z,13.10
2019-04-14T02:56:21.488Z,12.90
2019-04-14T02:58:26.733Z,13.70
2019-04-14T02:59:22.874Z,12.90
2019-04-14T03:00:25.989Z,13.10
2019-04-14T03:01:23.395Z,13.20
2019-04-14T03:02:29.611Z,13.00
2019-04-14T03:03:24.198Z,12.60
2019-04-14T03:04:19.500Z,12.50
2019-04-14T03:05:21.426Z,12.90
2019-04-14T03:06:18.074Z,12.90
2019-04-14T03:07:30.359Z,12.50
2019-04-14T03:08:25.550Z,12.80
2019-04-14T03:09:30.152Z,13.30
2019-04-14T03:11:25.705Z,12.90
2019-04-14T03:12:24.461Z,12.70
2019-04-14T03:13:21.082Z,12.70
2019-04-14T03:14:23.422Z,12.50
2019-04-14T03:16:23.297Z,12.70
2019-04-14T03:18:31.462Z,13.10
2019-04-14T03:19:25.294Z,13.50
2019-04-14T03:21:26.326Z,13.50
2019-04-14T03:23:30.279Z,13.60
2019-04-14T03:24:18.505Z,12.60
2019-04-14T03:25:13.167Z,12.90
2019-04-14T03:26:19.796Z,13.80
2019-04-14T03:27:24.943Z,13.30
2019-04-14T03:28:19.464Z,13.00
2019-04-14T03:29:21.718Z,13.00
2019-04-14T03:30:46.097Z,13.50
2019-04-14T03:31:37.662Z,13.10
2019-04-14T03:32:39.483Z,13.10
2019-04-14T03:33:48.502Z,13.30
2019-04-14T03:34:34.242Z,13.10
2019-04-14T03:38:24.446Z,13.40
2019-04-14T03:39:29.288Z,13.80
2019-04-14T03:40:25.620Z,13.50
2019-04-14T03:41:23.981Z,14.10
2019-04-14T03:42:31.815Z,13.20
2019-04-14T03:45:28.309Z,13.20
2019-04-14T03:46:41.529Z,13.80
2019-04-14T03:47:23.810Z,13.10
2019-04-14T03:48:44.865Z,13.10
2019-04-14T03:49:26.945Z,13.40
2019-04-14T03:50:21.101Z,14.00
2019-04-14T03:51:28.417Z,13.60
2019-04-14T03:52:26.940Z,13.90
2019-04-14T03:54:15.942Z,13.70
2019-04-14T03:55:11.482Z,13.80
2019-04-14T03:56:00.641Z,13.50
2019-04-14T03:56:55.904Z,12.50
2019-04-14T03:57:56.360Z,13.10
2019-04-14T03:58:55.716Z,13.20
2019-04-14T03:59:56.350Z,13.20
2019-04-14T04:00:55.781Z,13.00
2019-04-14T04:01:56.603Z,13.40
2019-04-14T04:02:55.718Z,13.00
2019-04-14T04:03:56.434Z,12.70
2019-04-14T04:04:55.714Z,12.50
2019-04-14T04:05:56.395Z,13.10
2019-04-14T04:06:55.749Z,12.90
2019-04-14T04:07:56.050Z,13.40
2019-04-14T04:08:55.727Z,13.10
2019-04-14T04:09:56.205Z,13.30
2019-04-14T04:10:55.793Z,13.50
2019-04-14T04:11:56.341Z,13.60
2019-04-14T04:12:55.757Z,12.90
2019-04-14T04:13:56.394Z,13.20
2019-04-14T04:14:55.779Z,13.30
2019-04-14T04:15:56.203Z,13.80
2019-04-14T04:16:55.813Z,13.40
2019-04-14T04:17:55.942Z,13.20
2019-04-14T04:19:02.521Z,14.00
2019-04-14T04:19:55.785Z,13.40
2019-04-14T04:20:56.657Z,13.80
2019-04-14T04:21:55.777Z,13.60
2019-04-14T04:22:56.567Z,13.50
2019-04-14T04:23:55.787Z,13.70
2019-04-14T04:24:56.456Z,13.60
2019-04-14T04:25:55.784Z,13.90
2019-04-14T04:26:56.056Z,14.10
2019-04-14T04:27:56.681Z,13.30
2019-04-14T04:28:56.245Z,13.50
2019-04-14T04:29:56.814Z,13.60
2019-04-14T04:30:55.952Z,13.60
2019-04-14T04:31:56.849Z,13.60
2019-04-14T04:32:55.889Z,13.30
2019-04-14T04:33:56.526Z,14.60
2019-04-14T04:34:55.814Z,13.90
2019-04-14T04:35:56.468Z,14.30
2019-04-14T04:36:55.821Z,14.20
2019-04-14T04:37:56.332Z,14.50
2019-04-14T04:38:55.839Z,14.10
2019-04-14T04:39:56.157Z,13.70
2019-04-14T04:40:55.825Z,14.30
2019-04-14T04:41:55.848Z,13.80
2019-04-14T04:42:56.846Z,14.20
2019-04-14T04:43:56.097Z,14.90
2019-04-14T04:44:55.895Z,14.60
2019-04-14T04:45:55.993Z,14.20
2019-04-14T04:46:56.885Z,13.90
2019-04-14T04:47:55.841Z,14.10
2019-04-14T04:49:04.470Z,14.80
2019-04-14T04:49:55.859Z,15.00
2019-04-14T04:50:56.378Z,15.30
2019-04-14T04:51:55.880Z,14.50
2019-04-14T04:52:56.200Z,14.70
2019-04-14T04:53:57.007Z,14.70
2019-04-14T04:54:55.968Z,15.10
2019-04-14T04:55:56.811Z,15.40
2019-04-14T04:56:55.932Z,14.80
2019-04-14T04:57:56.647Z,14.80
2019-04-14T04:58:56.749Z,15.10
2019-04-14T04:59:56.175Z,14.50
2019-04-14T05:00:57.381Z,14.40
2019-04-14T05:01:55.958Z,14.60
2019-04-14T05:02:57.044Z,14.40
2019-04-14T05:03:55.927Z,14.90
2019-04-14T05:04:56.882Z,14.10
2019-04-14T05:05:55.936Z,14.40
2019-04-14T05:06:56.910Z,14.50
2019-04-14T05:07:55.910Z,15.00
2019-04-14T05:08:56.921Z,14.40
2019-04-14T05:09:55.914Z,13.90
2019-04-14T05:10:56.755Z,14.40
2019-04-14T05:11:56.722Z,14.40
2019-04-14T05:12:56.497Z,14.20
2019-04-14T05:13:55.928Z,14.80
2019-04-14T05:14:56.632Z,14.40
2019-04-14T05:15:55.933Z,14.50
2019-04-14T05:16:57.101Z,14.70
2019-04-14T05:17:56.009Z,14.10
2019-04-14T05:18:55.935Z,14.50
2019-04-14T05:19:56.224Z,14.20
2019-04-14T05:20:55.958Z,13.70
2019-04-14T05:21:56.022Z,14.20
2019-04-14T05:22:57.159Z,14.10
2019-04-14T05:23:56.067Z,14.40
2019-04-14T05:24:57.098Z,14.00
2019-04-14T05:25:56.177Z,14.90
2019-04-14T05:26:57.028Z,13.80
2019-04-14T05:27:55.997Z,14.10
2019-04-14T05:28:56.951Z,14.90
2019-04-14T05:29:55.978Z,13.80
2019-04-14T05:30:56.901Z,14.40
2019-04-14T05:31:55.973Z,13.80
2019-04-14T05:32:56.532Z,14.70
2019-04-14T05:33:56.034Z,14.90
2019-04-14T05:34:56.525Z,14.00
2019-04-14T05:35:55.994Z,13.90
2019-04-14T05:36:56.393Z,14.70
2019-04-14T05:37:57.214Z,14.00
2019-04-14T05:38:56.046Z,14.30
2019-04-14T05:39:56.975Z,14.90
2019-04-14T05:40:56.242Z,14.10
2019-04-14T05:42:04.975Z,14.70
2019-04-14T05:42:56.015Z,13.50
2019-04-14T05:43:59.733Z,13.50
2019-04-14T05:44:56.054Z,13.60
2019-04-14T05:45:56.668Z,14.20
2019-04-14T05:46:56.028Z,14.00
2019-04-14T05:47:56.503Z,13.60
2019-04-14T05:48:56.040Z,13.70
2019-04-14T05:49:57.683Z,13.90
2019-04-14T05:50:56.041Z,14.40
2019-04-14T05:51:56.651Z,13.10
2019-04-14T05:52:56.060Z,12.40
2019-04-14T05:53:56.689Z,12.40
2019-04-14T05:54:56.100Z,12.70
2019-04-14T05:55:56.771Z,12.40
2019-04-14T05:56:56.051Z,12.20
2019-04-14T05:57:56.802Z,12.50
2019-04-14T05:58:56.058Z,12.50
2019-04-14T05:59:57.013Z,13.70
2019-04-14T06:00:56.111Z,13.20
2019-04-14T06:01:56.956Z,12.80
2019-04-14T06:02:57.221Z,12.90
2019-04-14T06:03:56.136Z,13.40
2019-04-14T06:04:57.085Z,13.10
2019-04-14T06:05:56.116Z,13.10
2019-04-14T06:06:56.092Z,11.60
2019-04-14T06:07:56.080Z,11.90
2019-04-14T06:08:56.087Z,12.20
2019-04-14T06:09:56.109Z,12.30
2019-04-14T06:10:56.094Z,11.50
2019-04-14T06:11:56.130Z,11.00
2019-04-14T06:12:56.113Z,12.00
2019-04-14T06:13:56.114Z,11.40
2019-04-14T06:14:56.104Z,11.60
2019-04-14T06:15:56.106Z,11.50
2019-04-14T06:16:56.099Z,11.60
2019-04-14T06:17:56.146Z,10.80
2019-04-14T06:18:56.138Z,10.80
2019-04-14T06:19:56.120Z,11.20
2019-04-14T06:20:56.135Z,10.70
2019-04-14T06:21:56.121Z,10.90
2019-04-14T06:22:56.146Z,10.80
2019-04-14T06:23:56.133Z,10.90
2019-04-14T06:24:56.140Z,11.30
2019-04-14T06:25:56.136Z,11.20
2019-04-14T06:26:56.145Z,11.50
2019-04-14T06:27:56.183Z,10.90
2019-04-14T06:28:56.157Z,10.50
2019-04-14T06:29:56.170Z,11.00
2019-04-14T06:30:56.156Z,11.30
2019-04-14T06:31:56.235Z,11.40
2019-04-14T06:32:56.151Z,11.20
2019-04-14T06:33:56.199Z,11.20
2019-04-14T06:34:56.156Z,10.70
2019-04-14T06:35:56.169Z,10.90
2019-04-14T06:36:56.170Z,11.00
2019-04-14T06:37:56.182Z,11.70
2019-04-14T06:38:56.175Z,11.40
2019-04-14T06:39:56.198Z,11.60
2019-04-14T06:40:56.221Z,11.50
2019-04-14T06:41:56.180Z,11.20
2019-04-14T06:42:56.189Z,11.40
2019-04-14T06:43:56.178Z,11.30
2019-04-14T06:44:56.217Z,11.40
2019-04-14T06:45:56.190Z,11.80
2019-04-14T06:46:56.197Z,11.70
2019-04-14T06:47:56.196Z,11.60
2019-04-14T06:48:56.228Z,12.10
2019-04-14T06:49:56.237Z,11.70
2019-04-14T06:50:56.203Z,10.90
2019-04-14T06:51:56.199Z,12.10
2019-04-14T06:52:56.224Z,11.80
2019-04-14T06:53:56.233Z,11.80
2019-04-14T06:54:56.256Z,11.80
2019-04-14T06:55:56.257Z,11.60
2019-04-14T06:56:56.265Z,12.40
2019-04-14T06:57:56.223Z,13.10
2019-04-14T06:58:56.221Z,12.40
2019-04-14T06:59:56.225Z,12.30
2019-04-14T07:00:56.241Z,13.00
2019-04-14T07:01:56.292Z,12.80
2019-04-14T07:02:56.265Z,12.80
2019-04-14T07:03:56.271Z,12.50
2019-04-14T07:04:56.272Z,12.30
2019-04-14T07:05:56.255Z,12.30
2019-04-14T07:06:56.345Z,12.30
2019-04-14T07:07:57.422Z,12.70
2019-04-14T07:08:56.334Z,12.20
2019-04-14T07:09:56.272Z,12.40
2019-04-14T07:10:56.288Z,11.80
2019-04-14T07:11:56.299Z,12.80
2019-04-14T07:12:56.309Z,12.30
2019-04-14T07:13:56.269Z,13.00
2019-04-14T07:14:56.277Z,12.50
2019-04-14T07:15:56.288Z,12.10
2019-04-14T07:16:56.280Z,12.60
2019-04-14T07:17:56.329Z,12.80
2019-04-14T07:18:56.286Z,12.80
2019-04-14T07:20:02.352Z,13.00
2019-04-14T07:20:56.306Z,13.60
2019-04-14T07:21:56.329Z,13.60
2019-04-14T07:22:56.350Z,13.10
2019-04-14T07:23:56.307Z,13.50
2019-04-14T07:24:56.306Z,13.90
2019-04-14T07:25:56.301Z,13.90
2019-04-14T07:26:56.355Z,13.20
2019-04-14T07:27:56.312Z,13.20
2019-04-14T07:28:57.146Z,13.50
2019-04-14T07:29:56.323Z,13.60
2019-04-14T07:30:56.325Z,13.10
2019-04-14T07:31:56.341Z,14.10
2019-04-14T07:32:56.350Z,13.60
2019-04-14T07:33:56.357Z,13.70
2019-04-14T07:34:56.330Z,14.10
2019-04-14T07:35:56.372Z,13.70
2019-04-14T07:36:56.354Z,13.90
2019-04-14T07:37:56.332Z,14.70
2019-04-14T07:38:56.387Z,14.30
2019-04-14T07:39:56.357Z,15.30
2019-04-14T07:40:56.369Z,13.80
2019-04-14T07:41:56.355Z,14.40
2019-04-14T07:42:56.377Z,14.70
2019-04-14T07:43:56.401Z,14.00
2019-04-14T07:44:56.380Z,14.00
2019-04-14T07:45:56.366Z,14.50
2019-04-14T07:46:56.392Z,14.00
2019-04-14T07:47:56.401Z,13.20
2019-04-14T07:48:56.384Z,13.60
2019-04-14T07:49:56.409Z,14.50
2019-04-14T07:50:56.403Z,14.30
2019-04-14T07:51:56.386Z,13.90
2019-04-14T07:52:56.379Z,14.70
2019-04-14T07:53:56.391Z,14.30
2019-04-14T07:54:56.445Z,14.50
2019-04-14T07:55:56.405Z,14.20
2019-04-14T07:56:56.421Z,14.10
2019-04-14T07:57:56.408Z,13.70
2019-04-14T07:58:56.406Z,14.30
2019-04-14T07:59:56.409Z,14.20
2019-04-14T08:00:56.436Z,14.80
2019-04-14T08:01:56.425Z,14.80
2019-04-14T08:02:56.429Z,14.00
2019-04-14T08:03:56.458Z,14.90
2019-04-14T08:04:56.452Z,15.00
2019-04-14T08:05:56.461Z,14.00
2019-04-14T08:06:56.457Z,14.90
2019-04-14T08:07:56.447Z,15.20
2019-04-14T08:08:56.444Z,15.50
2019-04-14T08:09:56.453Z,15.70
2019-04-14T08:10:56.493Z,15.50
2019-04-14T08:11:56.455Z,15.70
2019-04-14T08:12:56.468Z,15.50
2019-04-14T08:13:56.501Z,14.50
2019-04-14T08:14:56.482Z,16.20
2019-04-14T08:15:56.464Z,16.60
2019-04-14T08:16:56.542Z,14.80
2019-04-14T08:17:56.470Z,15.40
2019-04-14T08:18:56.506Z,15.50
2019-04-14T08:19:56.589Z,15.30
2019-04-14T08:20:56.480Z,15.40
2019-04-14T08:21:56.517Z,14.40
2019-04-14T08:22:57.828Z,15.30
2019-04-14T08:23:56.516Z,15.10
2019-04-14T08:24:56.497Z,15.60
2019-04-14T08:25:56.509Z,15.60
2019-04-14T08:26:56.573Z,15.70
2019-04-14T08:27:56.580Z,15.40
2019-04-14T08:28:56.529Z,15.50
2019-04-14T08:29:56.587Z,15.00
2019-04-14T08:30:56.510Z,15.50
2019-04-14T08:31:56.520Z,15.90
2019-04-14T08:32:56.563Z,16.00
2019-04-14T08:33:56.554Z,15.30
2019-04-14T08:34:56.524Z,15.20
2019-04-14T08:35:56.555Z,15.50
2019-04-14T08:36:56.562Z,15.90
2019-04-14T08:37:56.527Z,15.80
2019-04-14T08:38:56.583Z,15.80
2019-04-14T08:39:56.539Z,15.70
2019-04-14T08:40:56.631Z,15.80
2019-04-14T08:41:56.640Z,14.70
2019-04-14T08:42:56.547Z,15.90
2019-04-14T08:43:56.567Z,16.40
2019-04-14T08:44:56.575Z,16.00
2019-04-14T08:45:56.575Z,16.00
2019-04-14T08:46:56.589Z,14.80
2019-04-14T08:47:56.693Z,16.10
2019-04-14T08:48:56.605Z,14.70
2019-04-14T08:49:56.595Z,15.80
2019-04-14T08:50:56.666Z,15.60
2019-04-14T08:51:56.606Z,14.80
2019-04-14T08:52:56.615Z,15.00
2019-04-14T08:53:56.596Z,15.20
2019-04-14T08:54:56.602Z,16.40
2019-04-14T08:55:56.610Z,15.60
2019-04-14T08:56:56.623Z,15.60
2019-04-14T08:57:56.616Z,16.00
2019-04-14T08:58:56.619Z,15.30
2019-04-14T08:59:56.635Z,15.10
2019-04-14T09:00:56.622Z,15.50
2019-04-14T09:01:56.650Z,16.00
2019-04-14T09:02:56.698Z,14.90
2019-04-14T09:03:56.641Z,14.40
2019-04-14T09:04:56.690Z,14.90
2019-04-14T09:05:56.676Z,15.20
2019-04-14T09:06:56.699Z,16.00
2019-04-14T09:07:56.704Z,14.40
2019-04-14T09:08:56.686Z,15.20
2019-04-14T09:09:56.703Z,14.50
2019-04-14T09:10:56.731Z,14.90
2019-04-14T09:11:56.722Z,15.70
2019-04-14T09:12:56.704Z,15.40
2019-04-14T09:13:56.760Z,14.90
2019-04-14T09:14:57.608Z,15.00
2019-04-14T09:15:56.685Z,16.00
2019-04-14T09:16:56.737Z,15.60
2019-04-14T09:17:56.728Z,14.40
2019-04-14T09:19:07.103Z,15.00
2019-04-14T09:19:56.758Z,15.50
2019-04-14T09:20:56.730Z,15.20
2019-04-14T09:21:56.718Z,15.30
2019-04-14T09:22:56.777Z,14.50
2019-04-14T09:23:56.935Z,14.90
2019-04-14T09:24:56.717Z,14.90
2019-04-14T09:25:56.774Z,15.20
2019-04-14T09:26:56.734Z,16.10
2019-04-14T09:27:56.780Z,14.70
2019-04-14T09:28:56.760Z,15.00
2019-04-14T09:29:56.758Z,15.90
2019-04-14T09:30:56.758Z,15.20
2019-04-14T09:31:56.800Z,14.80
2019-04-14T09:32:56.793Z,15.40
2019-04-14T09:33:56.756Z,15.10
2019-04-14T09:34:56.770Z,15.50
2019-04-14T09:35:56.756Z,15.50
2019-04-14T09:36:56.773Z,14.60
2019-04-14T09:37:56.768Z,15.90
2019-04-14T09:38:56.851Z,14.50
2019-04-14T09:39:56.790Z,15.00
2019-04-14T09:40:56.804Z,15.70
2019-04-14T09:41:56.795Z,15.80
2019-04-14T09:42:57.796Z,14.90
2019-04-14T09:43:56.842Z,16.10
2019-04-14T09:44:56.817Z,14.40
2019-04-14T09:45:56.839Z,15.30
2019-04-14T09:46:56.799Z,15.90
2019-04-14T09:47:56.808Z,14.30
2019-04-14T09:48:56.902Z,15.50
2019-04-14T09:49:56.842Z,15.50
2019-04-14T09:51:04.687Z,15.00
2019-04-14T09:51:56.819Z,15.80
2019-04-14T09:52:56.887Z,15.60
2019-04-14T09:53:56.838Z,15.30
2019-04-14T09:54:56.842Z,15.40
2019-04-14T09:55:56.899Z,15.80
2019-04-14T09:56:56.857Z,15.50
2019-04-14T09:57:56.864Z,15.60
2019-04-14T09:58:56.855Z,15.30
2019-04-14T09:59:56.882Z,16.40
2019-04-14T10:00:56.888Z,15.50
2019-04-14T10:01:56.892Z,15.50
2019-04-14T10:02:56.877Z,15.70
2019-04-14T10:03:56.951Z,15.70
2019-04-14T10:04:56.884Z,15.70
2019-04-14T10:05:56.909Z,15.60
2019-04-14T10:06:56.900Z,15.70
2019-04-14T10:07:56.921Z,15.70
2019-04-14T10:08:56.954Z,16.30
2019-04-14T10:09:56.895Z,15.90
2019-04-14T10:10:56.950Z,17.10
2019-04-14T10:11:57.006Z,19.60
2019-04-14T10:12:56.927Z,15.70
2019-04-14T10:13:56.923Z,18.60
2019-04-14T10:14:56.922Z,14.90
2019-04-14T10:15:56.923Z,15.40
2019-04-14T10:16:56.965Z,16.10
2019-04-14T10:17:56.984Z,15.50
2019-04-14T10:18:56.946Z,15.90
2019-04-14T10:19:56.952Z,16.20
2019-04-14T10:20:56.961Z,15.70
2019-04-14T10:21:57.219Z,15.60
2019-04-14T10:22:56.990Z,16.70
2019-04-14T10:23:57.079Z,16.00
2019-04-14T10:24:56.971Z,17.20
2019-04-14T10:25:56.989Z,15.30
2019-04-14T10:26:57.072Z,15.20
2019-04-14T10:27:57.007Z,15.30
2019-04-14T10:28:56.983Z,15.60
2019-04-14T10:29:56.982Z,15.80
2019-04-14T10:30:57.034Z,15.90
2019-04-14T10:31:57.005Z,15.60
2019-04-14T10:32:57.075Z,15.40
2019-04-14T10:33:57.024Z,14.80
2019-04-14T10:34:57.017Z,15.10
2019-04-14T10:35:57.007Z,15.60
2019-04-14T10:36:57.023Z,15.80
2019-04-14T10:37:57.078Z,16.00
2019-04-14T10:38:57.035Z,14.90
2019-04-14T10:39:57.084Z,15.20
2019-04-14T10:40:57.045Z,16.00
2019-04-14T10:41:57.168Z,15.70
2019-04-14T10:42:57.227Z,15.30
2019-04-14T10:43:57.153Z,15.40
2019-04-14T10:44:57.084Z,14.60
2019-04-14T10:45:57.069Z,15.30
2019-04-14T10:46:57.067Z,14.60
2019-04-14T10:47:57.062Z,15.40
2019-04-14T10:48:57.064Z,15.70
2019-04-14T10:49:57.122Z,15.50
2019-04-14T10:50:57.181Z,15.70
2019-04-14T10:51:57.136Z,15.90
2019-04-14T10:52:57.089Z,15.20
2019-04-14T10:53:58.530Z,16.20
2019-04-14T10:54:57.530Z,15.50
2019-04-14T10:55:57.272Z,15.20
2019-04-14T10:56:57.373Z,15.40
2019-04-14T10:57:57.511Z,15.40
2019-04-14T10:58:57.424Z,15.40
2019-04-14T10:59:57.172Z,15.80
2019-04-14T11:00:57.324Z,15.10
2019-04-14T11:01:57.604Z,15.40
2019-04-14T11:02:57.137Z,16.00
2019-04-14T11:03:57.543Z,15.80
2019-04-14T11:04:57.774Z,15.50
2019-04-14T11:05:57.139Z,14.60
2019-04-14T11:06:57.261Z,15.50
2019-04-14T11:07:57.379Z,16.00
2019-04-14T11:08:57.150Z,15.30
2019-04-14T11:09:57.712Z,15.30
2019-04-14T11:10:57.188Z,15.00
2019-04-14T11:11:57.358Z,15.00
2019-04-14T11:12:57.441Z,14.90
2019-04-14T11:13:57.456Z,14.60
2019-04-14T11:14:57.421Z,15.00
2019-04-14T11:15:57.672Z,14.20
2019-04-14T11:16:57.557Z,14.80
2019-04-14T11:17:57.622Z,14.70
2019-04-14T11:18:57.359Z,14.50
2019-04-14T11:19:57.216Z,13.90
2019-04-14T11:20:57.206Z,14.30
2019-04-14T11:21:57.247Z,14.50
2019-04-14T11:23:03.109Z,13.90
2019-04-14T11:23:57.242Z,14.40
2019-04-14T11:24:57.218Z,13.90
2019-04-14T11:25:57.214Z,13.60
2019-04-14T11:26:57.262Z,13.70
2019-04-14T11:27:57.221Z,13.40
2019-04-14T11:28:57.260Z,13.10
2019-04-14T11:29:57.336Z,13.50
2019-04-14T11:30:57.292Z,13.40
2019-04-14T11:31:57.259Z,14.20
2019-04-14T11:32:57.424Z,12.70
2019-04-14T11:33:57.323Z,12.80
2019-04-14T11:34:57.341Z,13.50
2019-04-14T11:35:58.010Z,14.20
2019-04-14T11:36:57.486Z,13.40
2019-04-14T11:37:57.302Z,13.00
2019-04-14T11:38:57.360Z,13.40
2019-04-14T11:39:57.332Z,12.20
2019-04-14T11:40:57.384Z,13.00
2019-04-14T11:41:57.500Z,13.20
2019-04-14T11:42:57.431Z,13.80
2019-04-14T11:43:57.347Z,12.40
2019-04-14T11:44:57.504Z,14.10
2019-04-14T11:45:57.545Z,12.60
2019-04-14T11:46:57.474Z,13.50
2019-04-14T11:47:57.569Z,13.60
2019-04-14T11:48:57.387Z,13.50
2019-04-14T11:49:57.563Z,13.10
2019-04-14T11:50:57.497Z,12.70
2019-04-14T11:51:57.625Z,12.10
2019-04-14T11:52:57.594Z,12.70
2019-04-14T11:53:57.736Z,12.90
2019-04-14T11:54:57.953Z,13.70
2019-04-14T11:55:57.523Z,13.00
2019-04-14T11:56:57.497Z,13.30
2019-04-14T11:57:57.493Z,12.30
2019-04-14T11:58:57.418Z,12.70
2019-04-14T11:59:57.540Z,12.40
2019-04-14T12:00:57.675Z,13.30
2019-04-14T12:01:57.529Z,12.90
2019-04-14T12:02:57.802Z,13.10
2019-04-14T12:03:57.581Z,13.20
2019-04-14T12:04:57.625Z,13.10
2019-04-14T12:05:57.555Z,11.70
2019-04-14T12:06:57.774Z,12.00
2019-04-14T12:07:57.556Z,12.40
2019-04-14T12:08:57.649Z,11.20
2019-04-14T12:09:57.505Z,11.90
2019-04-14T12:10:57.554Z,11.80
2019-04-14T12:11:57.835Z,10.90
2019-04-14T12:12:57.458Z,11.40
2019-04-14T12:13:57.468Z,12.00
2019-04-14T12:14:57.585Z,11.70
2019-04-14T12:15:57.484Z,11.50
2019-04-14T12:16:57.630Z,12.20
2019-04-14T12:17:57.487Z,11.40
2019-04-14T12:18:57.494Z,12.00
2019-04-14T12:19:57.519Z,12.90
2019-04-14T12:20:57.532Z,12.50
2019-04-14T12:22:07.783Z,12.00
2019-04-14T12:22:57.515Z,12.00
2019-04-14T12:23:57.556Z,12.10
2019-04-14T12:24:57.523Z,12.00
2019-04-14T12:26:05.380Z,11.90
2019-04-14T12:26:57.529Z,11.80
2019-04-14T12:27:57.954Z,12.50
2019-04-14T12:28:59.173Z,11.70
2019-04-14T12:29:58.810Z,11.20
2019-04-14T12:30:57.636Z,12.10
2019-04-14T12:31:57.601Z,12.00
2019-04-14T12:32:57.576Z,11.70
2019-04-14T12:33:57.606Z,11.80
2019-04-14T12:34:57.695Z,11.80
2019-04-14T12:35:57.606Z,11.30
2019-04-14T12:36:57.597Z,12.40
2019-04-14T12:37:57.606Z,11.90
2019-04-14T12:38:57.596Z,12.10
2019-04-14T12:39:57.627Z,11.60
2019-04-14T12:40:59.347Z,12.00
2019-04-14T12:41:57.659Z,11.80
2019-04-14T12:42:57.642Z,12.10
2019-04-14T12:43:57.625Z,11.70
2019-04-14T12:44:57.656Z,11.40
2019-04-14T12:45:57.656Z,11.30
2019-04-14T12:46:57.685Z,10.90
2019-04-14T12:47:57.711Z,11.30
2019-04-14T12:48:57.703Z,12.10
2019-04-14T12:49:57.806Z,11.20
2019-04-14T12:50:57.714Z,12.00
2019-04-14T12:51:58.132Z,11.60
2019-04-14T12:52:57.759Z,11.40
2019-04-14T12:53:57.692Z,11.40
2019-04-14T12:54:57.691Z,11.10
2019-04-14T12:55:57.723Z,11.60
2019-04-14T12:56:57.815Z,11.80
2019-04-14T12:57:57.770Z,11.10
2019-04-14T12:58:57.751Z,11.20
2019-04-14T12:59:57.717Z,11.90
2019-04-14T13:00:57.750Z,11.40
2019-04-14T13:01:57.743Z,11.60
2019-04-14T13:02:57.748Z,11.50
2019-04-14T13:03:57.778Z,11.60
2019-04-14T13:04:57.780Z,11.20
2019-04-14T13:05:57.779Z,10.80
2019-04-14T13:06:57.880Z,11.10
2019-04-14T13:07:57.777Z,11.10
2019-04-14T13:08:57.807Z,11.30
2019-04-14T13:09:57.815Z,11.80